Portada
METAR-TAF:

METAR-TAF

Aeropuertos :

Aeropuerto de Vigo

Vigo, España

latitud: 42-13N, longitud: 008-38W, altitud: 264 m

Observación

El informe se hizo hace 21 minutos, a las 07:00 UTC
Viento 4 kt del noreste, variando entre norte y este-sureste
Temperatura 14°C
Humedad 88%
Presión 1019 hPa
Visibilidad 10 km o más
Cielo nuboso a una altura de 3300 ft

METAR: LEVX 270700Z 04004KT 350V110 9999 BKN033 14/12 Q1019 NOSIG

Hora: 09:21 (07:21 UTC)

Pronóstico

El informe se hizo hace 2 horas y 21 minutos, a las 05:00 UTC
Pronóstico válido del 27 a las 06 UTC al 28 a las 06 UTC
Viento 9 kt del norte
Visibilidad 10 km o más
Escasas nubes a una altura de 2000 ft
Probabilidad 40% :
Temporalmente
del 27 a las 16 UTC al 27 a las 18 UTC
Viento 15 kt del norte con ráfagas de 25 kt

TAF: LEVX 270500Z 2706/2806 01009KT 9999 FEW020 TX22/2714Z TN10/2805Z PROB40 TEMPO 2716/2718 01015G25KT

Observaciones y pronósticos meteorológicos de más de 4000 aeropuertos (mensajes METAR y TAF).

Los puntos amarillos y rojos representan las estaciones disponibles.

Ponga el ratón en el punto deseado para ver el nombre de la estación.

Haga clic para ver las observaciones y los pronósticos meteorológicos.

Para cambiar el mapa : haga clic en los botones verdes con una cruz de color negro para hacer un zoom, en el botón verde con un guión para alejar o en las flechas verdes para mapas adyacentes.


METAR-TAF: